sensor_id;sensor_type;location;lat;lon;timestamp;P1;durP1;ratioP1;P2;durP2;ratioP2
18455;SDS011;9357;49.900;8.208;2024-03-08T00:01:15;25.40;;;16.73;;
18455;SDS011;9357;49.900;8.208;2024-03-08T00:02:51;28.02;;;17.10;;
18455;SDS011;9357;49.900;8.208;2024-03-08T00:04:23;24.05;;;16.40;;
18455;SDS011;9357;49.900;8.208;2024-03-08T00:05:56;24.65;;;16.50;;
18455;SDS011;9357;49.900;8.208;2024-03-08T00:07:28;25.48;;;16.17;;
18455;SDS011;9357;49.900;8.208;2024-03-08T00:09:01;25.20;;;16.50;;
18455;SDS011;9357;49.900;8.208;2024-03-08T00:10:33;23.70;;;15.82;;
18455;SDS011;9357;49.900;8.208;2024-03-08T00:12:06;24.27;;;16.40;;
18455;SDS011;9357;49.900;8.208;2024-03-08T00:13:38;26.08;;;16.50;;
18455;SDS011;9357;49.900;8.208;2024-03-08T00:15:11;25.38;;;16.80;;
18455;SDS011;9357;49.900;8.208;2024-03-08T00:16:46;28.27;;;16.85;;
18455;SDS011;9357;49.900;8.208;2024-03-08T00:18:20;26.08;;;16.08;;
18455;SDS011;9357;49.900;8.208;2024-03-08T00:19:52;24.23;;;16.92;;
18455;SDS011;9357;49.900;8.208;2024-03-08T00:21:25;24.88;;;17.02;;
18455;SDS011;9357;49.900;8.208;2024-03-08T00:22:58;25.55;;;16.40;;
18455;SDS011;9357;49.900;8.208;2024-03-08T00:24:30;28.15;;;16.63;;
18455;SDS011;9357;49.900;8.208;2024-03-08T00:26:02;27.42;;;17.15;;
18455;SDS011;9357;49.900;8.208;2024-03-08T00:27:36;26.60;;;17.08;;
18455;SDS011;9357;49.900;8.208;2024-03-08T00:29:08;26.52;;;17.45;;
18455;SDS011;9357;49.900;8.208;2024-03-08T00:30:40;26.90;;;16.95;;
18455;SDS011;9357;49.900;8.208;2024-03-08T00:32:13;27.17;;;17.10;;
18455;SDS011;9357;49.900;8.208;2024-03-08T00:33:49;25.92;;;16.77;;
18455;SDS011;9357;49.900;8.208;2024-03-08T00:35:21;30.27;;;16.95;;
18455;SDS011;9357;49.900;8.208;2024-03-08T00:36:54;25.52;;;16.42;;
18455;SDS011;9357;49.900;8.208;2024-03-08T00:38:25;26.00;;;17.35;;
18455;SDS011;9357;49.900;8.208;2024-03-08T00:39:58;25.42;;;16.05;;
18455;SDS011;9357;49.900;8.208;2024-03-08T00:41:30;25.15;;;17.48;;
18455;SDS011;9357;49.900;8.208;2024-03-08T00:43:03;25.35;;;16.75;;
18455;SDS011;9357;49.900;8.208;2024-03-08T00:44:36;25.67;;;16.80;;
18455;SDS011;9357;49.900;8.208;2024-03-08T00:46:08;24.85;;;16.40;;
18455;SDS011;9357;49.900;8.208;2024-03-08T00:47:41;23.88;;;16.58;;
18455;SDS011;9357;49.900;8.208;2024-03-08T00:49:16;25.92;;;17.05;;
18455;SDS011;9357;49.900;8.208;2024-03-08T00:50:49;27.77;;;17.30;;
18455;SDS011;9357;49.900;8.208;2024-03-08T00:52:21;23.98;;;16.30;;
18455;SDS011;9357;49.900;8.208;2024-03-08T00:53:55;25.45;;;17.17;;
18455;SDS011;9357;49.900;8.208;2024-03-08T00:55:27;28.35;;;17.35;;
18455;SDS011;9357;49.900;8.208;2024-03-08T00:57:00;24.83;;;16.40;;
18455;SDS011;9357;49.900;8.208;2024-03-08T00:58:34;24.65;;;16.60;;
18455;SDS011;9357;49.900;8.208;2024-03-08T01:00:07;26.98;;;17.45;;
18455;SDS011;9357;49.900;8.208;2024-03-08T01:01:44;27.95;;;16.95;;
18455;SDS011;9357;49.900;8.208;2024-03-08T01:03:16;26.88;;;16.75;;
18455;SDS011;9357;49.900;8.208;2024-03-08T01:04:50;29.42;;;18.15;;
18455;SDS011;9357;49.900;8.208;2024-03-08T01:06:23;26.98;;;17.48;;
18455;SDS011;9357;49.900;8.208;2024-03-08T01:07:54;24.58;;;17.27;;
18455;SDS011;9357;49.900;8.208;2024-03-08T01:09:27;26.17;;;16.85;;
18455;SDS011;9357;49.900;8.208;2024-03-08T01:10:59;24.50;;;16.65;;
18455;SDS011;9357;49.900;8.208;2024-03-08T01:12:32;25.13;;;16.40;;
18455;SDS011;9357;49.900;8.208;2024-03-08T01:14:04;26.02;;;17.40;;
18455;SDS011;9357;49.900;8.208;2024-03-08T01:15:37;27.65;;;17.13;;
18455;SDS011;9357;49.900;8.208;2024-03-08T01:17:12;27.50;;;16.90;;
18455;SDS011;9357;49.900;8.208;2024-03-08T01:18:45;27.83;;;16.73;;
18455;SDS011;9357;49.900;8.208;2024-03-08T01:20:22;25.95;;;16.52;;
18455;SDS011;9357;49.900;8.208;2024-03-08T01:21:54;25.67;;;16.45;;
18455;SDS011;9357;49.900;8.208;2024-03-08T01:23:27;25.42;;;17.20;;
18455;SDS011;9357;49.900;8.208;2024-03-08T01:25:00;28.85;;;17.65;;
18455;SDS011;9357;49.900;8.208;2024-03-08T01:26:32;24.45;;;16.55;;
18455;SDS011;9357;49.900;8.208;2024-03-08T01:28:06;28.48;;;17.17;;
18455;SDS011;9357;49.900;8.208;2024-03-08T01:29:38;27.50;;;17.38;;
18455;SDS011;9357;49.900;8.208;2024-03-08T01:31:11;25.60;;;17.00;;
18455;SDS011;9357;49.900;8.208;2024-03-08T01:32:43;26.20;;;17.05;;
18455;SDS011;9357;49.900;8.208;2024-03-08T01:34:16;26.80;;;16.20;;
18455;SDS011;9357;49.900;8.208;2024-03-08T01:35:49;24.80;;;16.98;;
18455;SDS011;9357;49.900;8.208;2024-03-08T01:37:22;28.48;;;16.95;;
18455;SDS011;9357;49.900;8.208;2024-03-08T01:38:54;28.50;;;17.77;;
18455;SDS011;9357;49.900;8.208;2024-03-08T01:40:27;28.15;;;16.75;;
18455;SDS011;9357;49.900;8.208;2024-03-08T01:41:58;26.83;;;17.08;;
18455;SDS011;9357;49.900;8.208;2024-03-08T01:43:31;27.10;;;17.20;;
18455;SDS011;9357;49.900;8.208;2024-03-08T01:45:04;27.63;;;17.15;;
18455;SDS011;9357;49.900;8.208;2024-03-08T01:46:38;28.20;;;17.27;;
18455;SDS011;9357;49.900;8.208;2024-03-08T01:48:10;25.88;;;17.08;;
18455;SDS011;9357;49.900;8.208;2024-03-08T01:49:43;31.42;;;17.52;;
18455;SDS011;9357;49.900;8.208;2024-03-08T01:51:17;31.73;;;18.50;;
18455;SDS011;9357;49.900;8.208;2024-03-08T01:52:50;28.92;;;17.48;;
18455;SDS011;9357;49.900;8.208;2024-03-08T01:54:23;26.20;;;16.80;;
18455;SDS011;9357;49.900;8.208;2024-03-08T01:55:55;26.52;;;17.17;;
18455;SDS011;9357;49.900;8.208;2024-03-08T01:57:30;28.70;;;17.58;;
18455;SDS011;9357;49.900;8.208;2024-03-08T01:59:04;24.73;;;16.52;;
18455;SDS011;9357;49.900;8.208;2024-03-08T02:00:39;29.20;;;17.13;;
18455;SDS011;9357;49.900;8.208;2024-03-08T02:02:12;28.58;;;17.88;;
18455;SDS011;9357;49.900;8.208;2024-03-08T02:03:50;29.27;;;17.80;;
18455;SDS011;9357;49.900;8.208;2024-03-08T02:05:22;28.50;;;17.45;;
18455;SDS011;9357;49.900;8.208;2024-03-08T02:06:56;29.10;;;17.30;;
18455;SDS011;9357;49.900;8.208;2024-03-08T02:08:29;29.55;;;17.77;;
18455;SDS011;9357;49.900;8.208;2024-03-08T02:10:02;29.52;;;17.15;;
18455;SDS011;9357;49.900;8.208;2024-03-08T02:11:35;26.60;;;17.42;;
18455;SDS011;9357;49.900;8.208;2024-03-08T02:13:08;27.98;;;17.60;;
18455;SDS011;9357;49.900;8.208;2024-03-08T02:14:41;29.02;;;17.23;;
18455;SDS011;9357;49.900;8.208;2024-03-08T02:16:19;26.73;;;17.38;;
18455;SDS011;9357;49.900;8.208;2024-03-08T02:17:53;28.60;;;17.33;;
18455;SDS011;9357;49.900;8.208;2024-03-08T02:19:25;27.52;;;16.98;;
18455;SDS011;9357;49.900;8.208;2024-03-08T02:20:59;30.50;;;18.02;;
18455;SDS011;9357;49.900;8.208;2024-03-08T02:22:32;30.02;;;17.95;;
18455;SDS011;9357;49.900;8.208;2024-03-08T02:24:05;27.38;;;18.27;;
18455;SDS011;9357;49.900;8.208;2024-03-08T02:25:38;27.75;;;17.10;;
18455;SDS011;9357;49.900;8.208;2024-03-08T02:27:10;31.40;;;17.77;;
18455;SDS011;9357;49.900;8.208;2024-03-08T02:28:43;28.13;;;16.83;;
18455;SDS011;9357;49.900;8.208;2024-03-08T02:30:16;26.98;;;17.63;;
18455;SDS011;9357;49.900;8.208;2024-03-08T02:31:50;28.70;;;17.20;;
18455;SDS011;9357;49.900;8.208;2024-03-08T02:33:22;30.10;;;17.40;;
18455;SDS011;9357;49.900;8.208;2024-03-08T02:34:56;28.98;;;18.15;;
18455;SDS011;9357;49.900;8.208;2024-03-08T02:36:29;27.70;;;17.85;;
18455;SDS011;9357;49.900;8.208;2024-03-08T02:38:06;29.27;;;17.67;;
18455;SDS011;9357;49.900;8.208;2024-03-08T02:39:37;31.08;;;17.90;;
18455;SDS011;9357;49.900;8.208;2024-03-08T02:41:10;29.05;;;16.98;;
18455;SDS011;9357;49.900;8.208;2024-03-08T02:42:43;28.65;;;18.08;;
18455;SDS011;9357;49.900;8.208;2024-03-08T02:44:15;28.45;;;17.10;;
18455;SDS011;9357;49.900;8.208;2024-03-08T02:45:47;29.63;;;17.25;;
18455;SDS011;9357;49.900;8.208;2024-03-08T02:47:20;25.90;;;17.42;;
18455;SDS011;9357;49.900;8.208;2024-03-08T02:48:56;32.35;;;18.02;;
18455;SDS011;9357;49.900;8.208;2024-03-08T02:50:28;30.67;;;17.67;;
18455;SDS011;9357;49.900;8.208;2024-03-08T02:52:02;29.65;;;17.70;;
18455;SDS011;9357;49.900;8.208;2024-03-08T02:53:34;27.63;;;17.50;;
18455;SDS011;9357;49.900;8.208;2024-03-08T02:55:07;30.30;;;18.90;;
18455;SDS011;9357;49.900;8.208;2024-03-08T02:56:44;28.55;;;17.55;;
18455;SDS011;9357;49.900;8.208;2024-03-08T02:58:17;30.30;;;17.90;;
18455;SDS011;9357;49.900;8.208;2024-03-08T02:59:49;33.22;;;18.48;;
18455;SDS011;9357;49.900;8.208;2024-03-08T03:01:22;30.15;;;17.58;;
18455;SDS011;9357;49.900;8.208;2024-03-08T03:02:54;31.02;;;18.08;;
18455;SDS011;9357;49.900;8.208;2024-03-08T03:04:27;29.73;;;17.65;;
18455;SDS011;9357;49.900;8.208;2024-03-08T03:05:59;25.95;;;17.13;;
18455;SDS011;9357;49.900;8.208;2024-03-08T03:07:33;32.05;;;18.35;;
18455;SDS011;9357;49.900;8.208;2024-03-08T03:09:05;27.17;;;16.85;;
18455;SDS011;9357;49.900;8.208;2024-03-08T03:10:41;27.48;;;17.00;;
18455;SDS011;9357;49.900;8.208;2024-03-08T03:12:13;28.27;;;17.15;;
18455;SDS011;9357;49.900;8.208;2024-03-08T03:13:46;28.35;;;17.00;;
18455;SDS011;9357;49.900;8.208;2024-03-08T03:15:20;29.70;;;17.77;;
18455;SDS011;9357;49.900;8.208;2024-03-08T03:16:57;28.75;;;16.92;;
18455;SDS011;9357;49.900;8.208;2024-03-08T03:18:29;31.25;;;17.42;;
18455;SDS011;9357;49.900;8.208;2024-03-08T03:20:04;30.25;;;17.48;;
18455;SDS011;9357;49.900;8.208;2024-03-08T03:21:41;27.33;;;17.33;;
18455;SDS011;9357;49.900;8.208;2024-03-08T03:23:15;29.50;;;17.00;;
18455;SDS011;9357;49.900;8.208;2024-03-08T03:24:51;28.55;;;17.20;;
18455;SDS011;9357;49.900;8.208;2024-03-08T03:26:24;28.25;;;17.20;;
18455;SDS011;9357;49.900;8.208;2024-03-08T03:27:57;29.58;;;17.45;;
18455;SDS011;9357;49.900;8.208;2024-03-08T03:29:29;29.08;;;17.58;;
18455;SDS011;9357;49.900;8.208;2024-03-08T03:31:01;28.50;;;16.65;;
18455;SDS011;9357;49.900;8.208;2024-03-08T03:32:36;31.50;;;17.35;;
18455;SDS011;9357;49.900;8.208;2024-03-08T03:34:18;28.92;;;17.08;;
18455;SDS011;9357;49.900;8.208;2024-03-08T03:35:50;27.85;;;16.83;;
18455;SDS011;9357;49.900;8.208;2024-03-08T03:37:23;32.05;;;17.65;;
18455;SDS011;9357;49.900;8.208;2024-03-08T03:38:57;29.92;;;17.75;;
18455;SDS011;9357;49.900;8.208;2024-03-08T03:40:41;28.83;;;17.35;;
18455;SDS011;9357;49.900;8.208;2024-03-08T03:42:13;31.52;;;17.98;;
18455;SDS011;9357;49.900;8.208;2024-03-08T03:43:47;30.75;;;17.88;;
18455;SDS011;9357;49.900;8.208;2024-03-08T03:45:20;25.70;;;16.50;;
18455;SDS011;9357;49.900;8.208;2024-03-08T03:46:53;31.70;;;18.60;;
18455;SDS011;9357;49.900;8.208;2024-03-08T03:48:25;29.50;;;17.58;;
18455;SDS011;9357;49.900;8.208;2024-03-08T03:49:58;29.90;;;17.90;;
18455;SDS011;9357;49.900;8.208;2024-03-08T03:51:33;31.90;;;17.50;;
18455;SDS011;9357;49.900;8.208;2024-03-08T03:53:06;31.48;;;17.70;;
18455;SDS011;9357;49.900;8.208;2024-03-08T03:54:42;32.08;;;18.88;;
18455;SDS011;9357;49.900;8.208;2024-03-08T03:56:14;33.28;;;17.77;;
18455;SDS011;9357;49.900;8.208;2024-03-08T03:57:47;31.80;;;16.85;;
18455;SDS011;9357;49.900;8.208;2024-03-08T03:59:18;30.95;;;17.50;;
18455;SDS011;9357;49.900;8.208;2024-03-08T04:00:51;32.22;;;18.20;;
18455;SDS011;9357;49.900;8.208;2024-03-08T04:02:23;32.35;;;17.88;;
18455;SDS011;9357;49.900;8.208;2024-03-08T04:03:57;31.63;;;18.33;;
18455;SDS011;9357;49.900;8.208;2024-03-08T04:05:29;31.90;;;17.98;;
18455;SDS011;9357;49.900;8.208;2024-03-08T04:07:02;31.45;;;17.67;;
18455;SDS011;9357;49.900;8.208;2024-03-08T04:08:34;32.65;;;18.27;;
18455;SDS011;9357;49.900;8.208;2024-03-08T04:10:08;29.75;;;17.15;;
18455;SDS011;9357;49.900;8.208;2024-03-08T04:11:40;32.70;;;17.92;;
18455;SDS011;9357;49.900;8.208;2024-03-08T04:13:13;31.63;;;17.55;;
18455;SDS011;9357;49.900;8.208;2024-03-08T04:14:47;31.50;;;17.70;;
18455;SDS011;9357;49.900;8.208;2024-03-08T04:16:19;31.17;;;18.13;;
18455;SDS011;9357;49.900;8.208;2024-03-08T04:17:51;33.30;;;18.30;;
18455;SDS011;9357;49.900;8.208;2024-03-08T04:19:24;31.27;;;17.95;;
18455;SDS011;9357;49.900;8.208;2024-03-08T04:20:59;29.65;;;17.77;;
18455;SDS011;9357;49.900;8.208;2024-03-08T04:22:31;30.60;;;18.00;;
18455;SDS011;9357;49.900;8.208;2024-03-08T04:24:04;31.90;;;18.25;;
18455;SDS011;9357;49.900;8.208;2024-03-08T04:25:38;33.97;;;18.02;;
18455;SDS011;9357;49.900;8.208;2024-03-08T04:27:10;27.13;;;17.35;;
18455;SDS011;9357;49.900;8.208;2024-03-08T04:28:43;31.98;;;17.90;;
18455;SDS011;9357;49.900;8.208;2024-03-08T04:30:16;30.95;;;18.70;;
18455;SDS011;9357;49.900;8.208;2024-03-08T04:31:48;30.67;;;18.55;;
18455;SDS011;9357;49.900;8.208;2024-03-08T04:33:20;31.55;;;18.63;;
18455;SDS011;9357;49.900;8.208;2024-03-08T04:34:54;29.75;;;17.90;;
18455;SDS011;9357;49.900;8.208;2024-03-08T04:36:27;31.05;;;18.63;;
18455;SDS011;9357;49.900;8.208;2024-03-08T04:37:59;33.90;;;19.08;;
18455;SDS011;9357;49.900;8.208;2024-03-08T04:39:32;35.13;;;18.80;;
18455;SDS011;9357;49.900;8.208;2024-03-08T04:41:05;31.25;;;18.17;;
18455;SDS011;9357;49.900;8.208;2024-03-08T04:42:38;31.55;;;18.42;;
18455;SDS011;9357;49.900;8.208;2024-03-08T04:44:11;31.95;;;18.15;;
18455;SDS011;9357;49.900;8.208;2024-03-08T04:45:44;32.20;;;18.67;;
18455;SDS011;9357;49.900;8.208;2024-03-08T04:47:16;33.95;;;18.10;;
18455;SDS011;9357;49.900;8.208;2024-03-08T04:48:49;30.33;;;17.88;;
18455;SDS011;9357;49.900;8.208;2024-03-08T04:50:21;32.97;;;17.58;;
18455;SDS011;9357;49.900;8.208;2024-03-08T04:51:54;35.55;;;19.38;;
18455;SDS011;9357;49.900;8.208;2024-03-08T04:53:27;29.98;;;17.90;;
18455;SDS011;9357;49.900;8.208;2024-03-08T04:55:00;33.35;;;18.92;;
18455;SDS011;9357;49.900;8.208;2024-03-08T04:56:34;31.75;;;18.90;;
18455;SDS011;9357;49.900;8.208;2024-03-08T04:58:07;29.88;;;17.98;;
18455;SDS011;9357;49.900;8.208;2024-03-08T04:59:39;34.38;;;18.90;;
18455;SDS011;9357;49.900;8.208;2024-03-08T05:01:13;34.97;;;18.45;;
18455;SDS011;9357;49.900;8.208;2024-03-08T05:02:45;32.33;;;18.67;;
18455;SDS011;9357;49.900;8.208;2024-03-08T05:04:17;31.77;;;18.67;;
18455;SDS011;9357;49.900;8.208;2024-03-08T05:05:50;32.45;;;18.35;;
18455;SDS011;9357;49.900;8.208;2024-03-08T05:07:22;32.17;;;18.83;;
18455;SDS011;9357;49.900;8.208;2024-03-08T05:08:58;31.58;;;18.25;;
18455;SDS011;9357;49.900;8.208;2024-03-08T05:10:30;33.90;;;18.02;;
18455;SDS011;9357;49.900;8.208;2024-03-08T05:12:05;32.58;;;18.58;;
18455;SDS011;9357;49.900;8.208;2024-03-08T05:13:37;32.95;;;18.67;;
18455;SDS011;9357;49.900;8.208;2024-03-08T05:15:11;33.10;;;18.67;;
18455;SDS011;9357;49.900;8.208;2024-03-08T05:16:43;29.55;;;17.67;;
18455;SDS011;9357;49.900;8.208;2024-03-08T05:18:19;32.63;;;18.98;;
18455;SDS011;9357;49.900;8.208;2024-03-08T05:19:53;36.45;;;18.95;;
18455;SDS011;9357;49.900;8.208;2024-03-08T05:21:26;34.20;;;19.40;;
18455;SDS011;9357;49.900;8.208;2024-03-08T05:22:57;33.58;;;19.42;;
18455;SDS011;9357;49.900;8.208;2024-03-08T05:24:31;35.65;;;19.27;;
18455;SDS011;9357;49.900;8.208;2024-03-08T05:26:03;33.42;;;19.00;;
18455;SDS011;9357;49.900;8.208;2024-03-08T05:27:41;35.80;;;19.05;;
18455;SDS011;9357;49.900;8.208;2024-03-08T05:29:13;34.13;;;18.15;;
18455;SDS011;9357;49.900;8.208;2024-03-08T05:30:46;36.05;;;19.10;;
18455;SDS011;9357;49.900;8.208;2024-03-08T05:32:18;34.10;;;20.30;;
18455;SDS011;9357;49.900;8.208;2024-03-08T05:33:51;33.70;;;18.65;;
18455;SDS011;9357;49.900;8.208;2024-03-08T05:35:25;34.30;;;19.23;;
18455;SDS011;9357;49.900;8.208;2024-03-08T05:36:58;33.17;;;18.33;;
18455;SDS011;9357;49.900;8.208;2024-03-08T05:38:31;36.35;;;19.50;;
18455;SDS011;9357;49.900;8.208;2024-03-08T05:40:05;32.67;;;18.60;;
18455;SDS011;9357;49.900;8.208;2024-03-08T05:41:46;32.63;;;19.13;;
18455;SDS011;9357;49.900;8.208;2024-03-08T05:43:21;36.58;;;19.42;;
18455;SDS011;9357;49.900;8.208;2024-03-08T05:44:53;36.35;;;19.38;;
18455;SDS011;9357;49.900;8.208;2024-03-08T05:46:28;34.95;;;19.23;;
18455;SDS011;9357;49.900;8.208;2024-03-08T05:48:00;34.75;;;19.98;;
18455;SDS011;9357;49.900;8.208;2024-03-08T05:49:33;35.65;;;19.42;;
18455;SDS011;9357;49.900;8.208;2024-03-08T05:51:05;37.53;;;19.73;;
18455;SDS011;9357;49.900;8.208;2024-03-08T05:52:38;35.13;;;19.30;;
18455;SDS011;9357;49.900;8.208;2024-03-08T05:54:10;34.85;;;18.63;;
18455;SDS011;9357;49.900;8.208;2024-03-08T05:55:48;34.28;;;19.30;;
18455;SDS011;9357;49.900;8.208;2024-03-08T05:57:20;33.72;;;19.05;;
18455;SDS011;9357;49.900;8.208;2024-03-08T05:58:55;31.98;;;18.50;;
18455;SDS011;9357;49.900;8.208;2024-03-08T06:00:27;35.95;;;20.23;;
18455;SDS011;9357;49.900;8.208;2024-03-08T06:02:02;39.20;;;19.50;;
18455;SDS011;9357;49.900;8.208;2024-03-08T06:03:35;34.30;;;19.98;;
18455;SDS011;9357;49.900;8.208;2024-03-08T06:05:12;34.97;;;19.90;;
18455;SDS011;9357;49.900;8.208;2024-03-08T06:06:45;36.88;;;20.73;;
18455;SDS011;9357;49.900;8.208;2024-03-08T06:08:22;35.50;;;19.63;;
18455;SDS011;9357;49.900;8.208;2024-03-08T06:09:54;35.42;;;19.58;;
18455;SDS011;9357;49.900;8.208;2024-03-08T06:11:27;34.13;;;19.77;;
18455;SDS011;9357;49.900;8.208;2024-03-08T06:12:59;33.55;;;19.48;;
18455;SDS011;9357;49.900;8.208;2024-03-08T06:14:34;35.55;;;19.85;;
18455;SDS011;9357;49.900;8.208;2024-03-08T06:16:05;33.13;;;18.55;;
18455;SDS011;9357;49.900;8.208;2024-03-08T06:17:39;35.45;;;20.25;;
18455;SDS011;9357;49.900;8.208;2024-03-08T06:19:11;36.20;;;19.85;;
18455;SDS011;9357;49.900;8.208;2024-03-08T06:20:45;37.90;;;20.38;;
18455;SDS011;9357;49.900;8.208;2024-03-08T06:22:17;34.38;;;19.60;;
18455;SDS011;9357;49.900;8.208;2024-03-08T06:23:51;36.70;;;19.95;;
18455;SDS011;9357;49.900;8.208;2024-03-08T06:25:25;36.13;;;20.10;;
18455;SDS011;9357;49.900;8.208;2024-03-08T06:26:58;33.28;;;19.92;;
18455;SDS011;9357;49.900;8.208;2024-03-08T06:28:30;38.55;;;20.65;;
18455;SDS011;9357;49.900;8.208;2024-03-08T06:30:05;35.53;;;20.23;;
18455;SDS011;9357;49.900;8.208;2024-03-08T06:31:41;36.42;;;20.08;;
18455;SDS011;9357;49.900;8.208;2024-03-08T06:33:14;35.10;;;19.13;;
18455;SDS011;9357;49.900;8.208;2024-03-08T06:34:47;37.72;;;20.20;;
18455;SDS011;9357;49.900;8.208;2024-03-08T06:36:21;35.85;;;20.77;;
18455;SDS011;9357;49.900;8.208;2024-03-08T06:37:53;34.72;;;19.38;;
18455;SDS011;9357;49.900;8.208;2024-03-08T06:39:27;35.85;;;19.40;;
18455;SDS011;9357;49.900;8.208;2024-03-08T06:41:01;35.30;;;20.23;;
18455;SDS011;9357;49.900;8.208;2024-03-08T06:42:35;38.33;;;21.08;;
18455;SDS011;9357;49.900;8.208;2024-03-08T06:44:10;33.28;;;19.85;;
18455;SDS011;9357;49.900;8.208;2024-03-08T06:45:44;37.50;;;21.33;;
18455;SDS011;9357;49.900;8.208;2024-03-08T06:47:19;36.40;;;19.58;;
18455;SDS011;9357;49.900;8.208;2024-03-08T06:48:52;34.60;;;21.02;;
18455;SDS011;9357;49.900;8.208;2024-03-08T06:50:25;38.33;;;20.08;;
18455;SDS011;9357;49.900;8.208;2024-03-08T06:51:57;35.88;;;19.98;;
18455;SDS011;9357;49.900;8.208;2024-03-08T06:53:30;36.78;;;20.42;;
18455;SDS011;9357;49.900;8.208;2024-03-08T06:55:02;38.10;;;20.60;;
18455;SDS011;9357;49.900;8.208;2024-03-08T06:56:36;36.42;;;20.58;;
18455;SDS011;9357;49.900;8.208;2024-03-08T06:58:09;37.85;;;21.27;;
18455;SDS011;9357;49.900;8.208;2024-03-08T06:59:41;37.47;;;20.90;;
18455;SDS011;9357;49.900;8.208;2024-03-08T07:01:15;39.05;;;19.92;;
18455;SDS011;9357;49.900;8.208;2024-03-08T07:02:48;34.55;;;19.35;;
18455;SDS011;9357;49.900;8.208;2024-03-08T07:04:21;34.42;;;20.65;;
18455;SDS011;9357;49.900;8.208;2024-03-08T07:05:57;39.05;;;20.90;;
18455;SDS011;9357;49.900;8.208;2024-03-08T07:07:30;36.42;;;20.73;;
18455;SDS011;9357;49.900;8.208;2024-03-08T07:09:03;37.97;;;20.25;;
18455;SDS011;9357;49.900;8.208;2024-03-08T07:10:35;36.83;;;20.92;;
18455;SDS011;9357;49.900;8.208;2024-03-08T07:12:09;33.47;;;20.10;;
18455;SDS011;9357;49.900;8.208;2024-03-08T07:13:41;35.58;;;20.25;;
18455;SDS011;9357;49.900;8.208;2024-03-08T07:15:14;35.08;;;20.65;;
18455;SDS011;9357;49.900;8.208;2024-03-08T07:16:47;38.72;;;21.30;;
18455;SDS011;9357;49.900;8.208;2024-03-08T07:18:20;34.60;;;20.17;;
18455;SDS011;9357;49.900;8.208;2024-03-08T07:19:53;34.08;;;20.02;;
18455;SDS011;9357;49.900;8.208;2024-03-08T07:21:26;36.90;;;20.45;;
18455;SDS011;9357;49.900;8.208;2024-03-08T07:22:58;34.63;;;20.20;;
18455;SDS011;9357;49.900;8.208;2024-03-08T07:24:31;41.75;;;21.45;;
18455;SDS011;9357;49.900;8.208;2024-03-08T07:26:11;36.08;;;19.83;;
18455;SDS011;9357;49.900;8.208;2024-03-08T07:27:47;35.72;;;20.23;;
18455;SDS011;9357;49.900;8.208;2024-03-08T07:29:19;38.70;;;20.65;;
18455;SDS011;9357;49.900;8.208;2024-03-08T07:30:52;34.00;;;19.83;;
18455;SDS011;9357;49.900;8.208;2024-03-08T07:32:33;35.95;;;21.35;;
18455;SDS011;9357;49.900;8.208;2024-03-08T07:34:07;36.55;;;20.17;;
18455;SDS011;9357;49.900;8.208;2024-03-08T07:35:39;36.78;;;20.20;;
18455;SDS011;9357;49.900;8.208;2024-03-08T07:37:13;34.70;;;20.83;;
18455;SDS011;9357;49.900;8.208;2024-03-08T07:38:45;31.50;;;19.15;;
18455;SDS011;9357;49.900;8.208;2024-03-08T07:40:18;31.48;;;18.60;;
18455;SDS011;9357;49.900;8.208;2024-03-08T07:41:50;31.55;;;19.42;;
18455;SDS011;9357;49.900;8.208;2024-03-08T07:43:23;32.65;;;17.70;;
18455;SDS011;9357;49.900;8.208;2024-03-08T07:44:55;30.92;;;18.63;;
18455;SDS011;9357;49.900;8.208;2024-03-08T07:46:28;30.25;;;18.50;;
18455;SDS011;9357;49.900;8.208;2024-03-08T07:48:04;30.77;;;18.88;;
18455;SDS011;9357;49.900;8.208;2024-03-08T07:49:41;30.25;;;17.70;;
18455;SDS011;9357;49.900;8.208;2024-03-08T07:51:15;29.98;;;18.13;;
18455;SDS011;9357;49.900;8.208;2024-03-08T07:52:49;29.10;;;18.27;;
18455;SDS011;9357;49.900;8.208;2024-03-08T07:54:22;29.75;;;18.63;;
18455;SDS011;9357;49.900;8.208;2024-03-08T07:55:55;29.55;;;18.67;;
18455;SDS011;9357;49.900;8.208;2024-03-08T07:57:26;30.63;;;18.88;;
18455;SDS011;9357;49.900;8.208;2024-03-08T07:59:00;27.98;;;18.27;;
18455;SDS011;9357;49.900;8.208;2024-03-08T08:00:35;27.27;;;16.73;;
18455;SDS011;9357;49.900;8.208;2024-03-08T08:02:07;28.20;;;18.00;;
18455;SDS011;9357;49.900;8.208;2024-03-08T08:03:41;26.20;;;17.17;;
18455;SDS011;9357;49.900;8.208;2024-03-08T08:05:13;29.92;;;18.27;;
18455;SDS011;9357;49.900;8.208;2024-03-08T08:06:50;27.95;;;17.67;;
18455;SDS011;9357;49.900;8.208;2024-03-08T08:08:22;28.13;;;18.58;;
18455;SDS011;9357;49.900;8.208;2024-03-08T08:09:57;28.02;;;18.52;;
18455;SDS011;9357;49.900;8.208;2024-03-08T08:11:28;26.73;;;17.75;;
18455;SDS011;9357;49.900;8.208;2024-03-08T08:13:02;26.20;;;18.50;;
18455;SDS011;9357;49.900;8.208;2024-03-08T08:14:36;27.83;;;18.10;;
18455;SDS011;9357;49.900;8.208;2024-03-08T08:16:09;27.83;;;17.92;;
18455;SDS011;9357;49.900;8.208;2024-03-08T08:17:43;25.73;;;18.27;;
18455;SDS011;9357;49.900;8.208;2024-03-08T08:19:17;28.27;;;18.67;;
18455;SDS011;9357;49.900;8.208;2024-03-08T08:20:50;28.35;;;17.67;;
18455;SDS011;9357;49.900;8.208;2024-03-08T08:22:23;30.57;;;18.63;;
18455;SDS011;9357;49.900;8.208;2024-03-08T08:23:55;25.63;;;17.17;;
18455;SDS011;9357;49.900;8.208;2024-03-08T08:25:28;24.90;;;17.37;;
18455;SDS011;9357;49.900;8.208;2024-03-08T08:27:00;28.23;;;18.80;;
18455;SDS011;9357;49.900;8.208;2024-03-08T08:28:33;27.00;;;18.05;;
18455;SDS011;9357;49.900;8.208;2024-03-08T08:30:06;25.70;;;17.97;;
18455;SDS011;9357;49.900;8.208;2024-03-08T08:31:40;25.87;;;18.60;;
18455;SDS011;9357;49.900;8.208;2024-03-08T08:33:12;24.30;;;17.67;;
18455;SDS011;9357;49.900;8.208;2024-03-08T08:34:47;27.77;;;19.10;;
18455;SDS011;9357;49.900;8.208;2024-03-08T08:36:20;29.37;;;19.53;;
18455;SDS011;9357;49.900;8.208;2024-03-08T08:37:52;27.13;;;18.00;;
18455;SDS011;9357;49.900;8.208;2024-03-08T08:39:25;26.77;;;18.80;;
18455;SDS011;9357;49.900;8.208;2024-03-08T08:40:57;27.33;;;17.93;;
18455;SDS011;9357;49.900;8.208;2024-03-08T08:42:30;25.67;;;17.63;;
18455;SDS011;9357;49.900;8.208;2024-03-08T08:44:02;28.03;;;17.57;;
18455;SDS011;9357;49.900;8.208;2024-03-08T08:45:38;25.37;;;18.17;;
18455;SDS011;9357;49.900;8.208;2024-03-08T08:47:11;27.27;;;18.17;;
18455;SDS011;9357;49.900;8.208;2024-03-08T08:48:47;26.00;;;18.27;;
18455;SDS011;9357;49.900;8.208;2024-03-08T08:50:21;26.47;;;17.93;;
18455;SDS011;9357;49.900;8.208;2024-03-08T08:51:54;26.40;;;17.63;;
18455;SDS011;9357;49.900;8.208;2024-03-08T08:53:39;27.10;;;18.23;;
18455;SDS011;9357;49.900;8.208;2024-03-08T08:55:14;23.77;;;17.27;;
18455;SDS011;9357;49.900;8.208;2024-03-08T08:56:46;27.23;;;17.93;;
18455;SDS011;9357;49.900;8.208;2024-03-08T08:58:19;24.53;;;17.17;;
18455;SDS011;9357;49.900;8.208;2024-03-08T08:59:51;24.90;;;17.50;;
18455;SDS011;9357;49.900;8.208;2024-03-08T09:01:24;27.10;;;17.60;;
18455;SDS011;9357;49.900;8.208;2024-03-08T09:02:55;25.10;;;16.87;;
18455;SDS011;9357;49.900;8.208;2024-03-08T09:04:29;24.90;;;17.00;;
18455;SDS011;9357;49.900;8.208;2024-03-08T09:06:03;28.00;;;18.30;;
18455;SDS011;9357;49.900;8.208;2024-03-08T09:07:38;26.27;;;18.53;;
18455;SDS011;9357;49.900;8.208;2024-03-08T09:09:10;22.33;;;17.03;;
18455;SDS011;9357;49.900;8.208;2024-03-08T09:10:44;26.07;;;17.70;;
18455;SDS011;9357;49.900;8.208;2024-03-08T09:12:19;28.23;;;18.47;;
18455;SDS011;9357;49.900;8.208;2024-03-08T09:13:52;24.23;;;17.90;;